sensor_id;sensor_type;location;lat;lon;timestamp;P1;durP1;ratioP1;P2;durP2;ratioP2
39956;SDS011;48483;44.640;7.494;2024-01-11T00:01:22;20.05;;;13.77;;
39956;SDS011;48483;44.640;7.494;2024-01-11T00:03:49;20.83;;;15.90;;
39956;SDS011;48483;44.640;7.494;2024-01-11T00:06:17;21.75;;;15.23;;
39956;SDS011;48483;44.640;7.494;2024-01-11T00:08:44;21.88;;;14.82;;
39956;SDS011;48483;44.640;7.494;2024-01-11T00:11:10;22.45;;;14.55;;
39956;SDS011;48483;44.640;7.494;2024-01-11T00:13:37;21.02;;;13.55;;
39956;SDS011;48483;44.640;7.494;2024-01-11T00:16:04;21.25;;;14.73;;
39956;SDS011;48483;44.640;7.494;2024-01-11T00:18:31;21.00;;;14.27;;
39956;SDS011;48483;44.640;7.494;2024-01-11T00:20:57;22.23;;;15.02;;
39956;SDS011;48483;44.640;7.494;2024-01-11T00:23:25;20.75;;;13.80;;
39956;SDS011;48483;44.640;7.494;2024-01-11T00:25:52;21.17;;;14.48;;
39956;SDS011;48483;44.640;7.494;2024-01-11T00:28:19;23.20;;;15.20;;
39956;SDS011;48483;44.640;7.494;2024-01-11T00:30:45;20.13;;;14.50;;
39956;SDS011;48483;44.640;7.494;2024-01-11T00:33:12;19.75;;;13.70;;
39956;SDS011;48483;44.640;7.494;2024-01-11T00:35:39;21.65;;;14.98;;
39956;SDS011;48483;44.640;7.494;2024-01-11T00:38:06;19.45;;;13.20;;
39956;SDS011;48483;44.640;7.494;2024-01-11T00:40:34;20.48;;;14.48;;
39956;SDS011;48483;44.640;7.494;2024-01-11T00:43:00;22.27;;;15.45;;
39956;SDS011;48483;44.640;7.494;2024-01-11T00:45:27;22.67;;;15.40;;
39956;SDS011;48483;44.640;7.494;2024-01-11T00:47:53;22.08;;;14.30;;
39956;SDS011;48483;44.640;7.494;2024-01-11T00:50:20;19.05;;;14.95;;
39956;SDS011;48483;44.640;7.494;2024-01-11T00:52:47;20.63;;;13.57;;
39956;SDS011;48483;44.640;7.494;2024-01-11T00:55:14;19.45;;;13.30;;
39956;SDS011;48483;44.640;7.494;2024-01-11T00:57:43;22.85;;;13.80;;
39956;SDS011;48483;44.640;7.494;2024-01-11T01:00:10;21.27;;;16.02;;
39956;SDS011;48483;44.640;7.494;2024-01-11T01:05:07;22.02;;;14.55;;
39956;SDS011;48483;44.640;7.494;2024-01-11T01:07:34;22.73;;;14.75;;
39956;SDS011;48483;44.640;7.494;2024-01-11T01:10:01;19.98;;;14.52;;
39956;SDS011;48483;44.640;7.494;2024-01-11T01:12:28;22.00;;;14.75;;
39956;SDS011;48483;44.640;7.494;2024-01-11T01:14:56;24.45;;;14.95;;
39956;SDS011;48483;44.640;7.494;2024-01-11T01:17:23;24.45;;;17.83;;
39956;SDS011;48483;44.640;7.494;2024-01-11T01:19:49;21.95;;;15.40;;
39956;SDS011;48483;44.640;7.494;2024-01-11T01:22:16;24.80;;;16.38;;
39956;SDS011;48483;44.640;7.494;2024-01-11T01:24:43;21.80;;;15.77;;
39956;SDS011;48483;44.640;7.494;2024-01-11T01:27:10;26.80;;;17.13;;
39956;SDS011;48483;44.640;7.494;2024-01-11T01:29:36;23.60;;;16.73;;
39956;SDS011;48483;44.640;7.494;2024-01-11T01:32:05;23.23;;;16.08;;
39956;SDS011;48483;44.640;7.494;2024-01-11T01:34:31;21.60;;;15.07;;
39956;SDS011;48483;44.640;7.494;2024-01-11T01:36:58;25.05;;;16.23;;
39956;SDS011;48483;44.640;7.494;2024-01-11T01:39:25;23.30;;;16.13;;
39956;SDS011;48483;44.640;7.494;2024-01-11T01:41:51;27.15;;;17.25;;
39956;SDS011;48483;44.640;7.494;2024-01-11T01:44:18;27.13;;;18.48;;
39956;SDS011;48483;44.640;7.494;2024-01-11T01:46:45;27.23;;;18.33;;
39956;SDS011;48483;44.640;7.494;2024-01-11T01:49:14;29.27;;;17.00;;
39956;SDS011;48483;44.640;7.494;2024-01-11T01:51:43;26.40;;;17.02;;
39956;SDS011;48483;44.640;7.494;2024-01-11T01:54:10;24.55;;;17.05;;
39956;SDS011;48483;44.640;7.494;2024-01-11T01:56:37;25.77;;;16.73;;
39956;SDS011;48483;44.640;7.494;2024-01-11T01:59:04;30.33;;;17.73;;
39956;SDS011;48483;44.640;7.494;2024-01-11T02:01:30;27.75;;;19.50;;
39956;SDS011;48483;44.640;7.494;2024-01-11T02:03:58;23.80;;;16.08;;
39956;SDS011;48483;44.640;7.494;2024-01-11T02:06:26;25.83;;;16.52;;
39956;SDS011;48483;44.640;7.494;2024-01-11T02:08:55;24.13;;;15.90;;
39956;SDS011;48483;44.640;7.494;2024-01-11T02:11:23;27.88;;;17.80;;
39956;SDS011;48483;44.640;7.494;2024-01-11T02:13:50;24.13;;;16.42;;
39956;SDS011;48483;44.640;7.494;2024-01-11T02:16:17;25.02;;;17.05;;
39956;SDS011;48483;44.640;7.494;2024-01-11T02:18:44;26.17;;;18.05;;
39956;SDS011;48483;44.640;7.494;2024-01-11T02:21:11;26.60;;;17.27;;
39956;SDS011;48483;44.640;7.494;2024-01-11T02:23:43;18.58;;;13.63;;
39956;SDS011;48483;44.640;7.494;2024-01-11T02:26:14;23.58;;;16.80;;
39956;SDS011;48483;44.640;7.494;2024-01-11T02:28:44;27.10;;;17.83;;
39956;SDS011;48483;44.640;7.494;2024-01-11T02:31:11;21.05;;;14.10;;
39956;SDS011;48483;44.640;7.494;2024-01-11T02:33:39;22.15;;;15.40;;
39956;SDS011;48483;44.640;7.494;2024-01-11T02:36:07;23.15;;;16.33;;
39956;SDS011;48483;44.640;7.494;2024-01-11T02:38:34;23.95;;;16.75;;
39956;SDS011;48483;44.640;7.494;2024-01-11T02:41:01;23.30;;;16.73;;
39956;SDS011;48483;44.640;7.494;2024-01-11T02:43:30;21.02;;;15.00;;
39956;SDS011;48483;44.640;7.494;2024-01-11T02:45:56;22.67;;;16.42;;
39956;SDS011;48483;44.640;7.494;2024-01-11T02:48:27;28.63;;;17.23;;
39956;SDS011;48483;44.640;7.494;2024-01-11T02:50:54;16.63;;;11.77;;
39956;SDS011;48483;44.640;7.494;2024-01-11T02:53:21;22.38;;;17.20;;
39956;SDS011;48483;44.640;7.494;2024-01-11T02:55:48;24.40;;;17.45;;
39956;SDS011;48483;44.640;7.494;2024-01-11T02:58:14;25.65;;;17.75;;
39956;SDS011;48483;44.640;7.494;2024-01-11T03:00:42;24.67;;;17.02;;
39956;SDS011;48483;44.640;7.494;2024-01-11T03:03:09;23.95;;;17.80;;
39956;SDS011;48483;44.640;7.494;2024-01-11T03:05:36;24.33;;;18.10;;
39956;SDS011;48483;44.640;7.494;2024-01-11T03:08:02;26.25;;;16.30;;
39956;SDS011;48483;44.640;7.494;2024-01-11T03:10:30;25.80;;;16.92;;
39956;SDS011;48483;44.640;7.494;2024-01-11T03:12:56;24.40;;;16.90;;
39956;SDS011;48483;44.640;7.494;2024-01-11T03:15:24;23.25;;;16.65;;
39956;SDS011;48483;44.640;7.494;2024-01-11T03:17:51;24.10;;;17.15;;
39956;SDS011;48483;44.640;7.494;2024-01-11T03:20:18;23.60;;;16.85;;
39956;SDS011;48483;44.640;7.494;2024-01-11T03:25:15;27.05;;;15.38;;
39956;SDS011;48483;44.640;7.494;2024-01-11T03:27:41;23.15;;;16.23;;
39956;SDS011;48483;44.640;7.494;2024-01-11T03:30:08;22.90;;;14.43;;
39956;SDS011;48483;44.640;7.494;2024-01-11T03:32:35;24.13;;;17.55;;
39956;SDS011;48483;44.640;7.494;2024-01-11T03:35:04;24.67;;;17.10;;
39956;SDS011;48483;44.640;7.494;2024-01-11T03:37:31;25.25;;;16.73;;
39956;SDS011;48483;44.640;7.494;2024-01-11T03:39:58;24.65;;;17.85;;
39956;SDS011;48483;44.640;7.494;2024-01-11T03:42:25;25.98;;;17.42;;
39956;SDS011;48483;44.640;7.494;2024-01-11T03:44:52;23.90;;;17.27;;
39956;SDS011;48483;44.640;7.494;2024-01-11T03:47:19;28.20;;;17.80;;
39956;SDS011;48483;44.640;7.494;2024-01-11T03:49:45;20.50;;;15.35;;
39956;SDS011;48483;44.640;7.494;2024-01-11T03:52:13;24.67;;;17.60;;
39956;SDS011;48483;44.640;7.494;2024-01-11T03:54:40;23.98;;;16.38;;
39956;SDS011;48483;44.640;7.494;2024-01-11T03:57:07;25.25;;;18.27;;
39956;SDS011;48483;44.640;7.494;2024-01-11T03:59:33;23.38;;;15.63;;
39956;SDS011;48483;44.640;7.494;2024-01-11T04:02:01;25.17;;;15.95;;
39956;SDS011;48483;44.640;7.494;2024-01-11T04:04:27;24.05;;;16.83;;
39956;SDS011;48483;44.640;7.494;2024-01-11T04:06:54;24.20;;;16.67;;
39956;SDS011;48483;44.640;7.494;2024-01-11T04:09:22;28.13;;;17.00;;
39956;SDS011;48483;44.640;7.494;2024-01-11T04:11:49;22.95;;;16.15;;
39956;SDS011;48483;44.640;7.494;2024-01-11T04:14:15;23.40;;;15.93;;
39956;SDS011;48483;44.640;7.494;2024-01-11T04:16:42;23.10;;;16.45;;
39956;SDS011;48483;44.640;7.494;2024-01-11T04:19:09;26.00;;;16.90;;
39956;SDS011;48483;44.640;7.494;2024-01-11T04:21:35;23.15;;;15.60;;
39956;SDS011;48483;44.640;7.494;2024-01-11T04:24:04;22.65;;;15.98;;
39956;SDS011;48483;44.640;7.494;2024-01-11T04:26:35;19.57;;;13.30;;
39956;SDS011;48483;44.640;7.494;2024-01-11T04:29:02;24.70;;;16.80;;
39956;SDS011;48483;44.640;7.494;2024-01-11T04:31:29;22.42;;;16.17;;
39956;SDS011;48483;44.640;7.494;2024-01-11T04:33:55;21.75;;;16.58;;
39956;SDS011;48483;44.640;7.494;2024-01-11T04:36:22;22.55;;;16.42;;
39956;SDS011;48483;44.640;7.494;2024-01-11T04:38:49;24.55;;;17.40;;
39956;SDS011;48483;44.640;7.494;2024-01-11T04:41:15;26.08;;;17.75;;
39956;SDS011;48483;44.640;7.494;2024-01-11T04:43:44;22.60;;;16.60;;
39956;SDS011;48483;44.640;7.494;2024-01-11T04:46:14;26.60;;;18.02;;
39956;SDS011;48483;44.640;7.494;2024-01-11T04:51:08;21.40;;;14.07;;
39956;SDS011;48483;44.640;7.494;2024-01-11T04:53:36;23.00;;;15.45;;
39956;SDS011;48483;44.640;7.494;2024-01-11T04:56:04;25.13;;;17.38;;
39956;SDS011;48483;44.640;7.494;2024-01-11T04:58:31;24.10;;;15.30;;
39956;SDS011;48483;44.640;7.494;2024-01-11T05:00:59;24.60;;;17.63;;
39956;SDS011;48483;44.640;7.494;2024-01-11T05:03:26;22.63;;;16.35;;
39956;SDS011;48483;44.640;7.494;2024-01-11T05:05:54;23.60;;;17.30;;
39956;SDS011;48483;44.640;7.494;2024-01-11T05:08:20;22.83;;;16.15;;
39956;SDS011;48483;44.640;7.494;2024-01-11T05:10:47;24.88;;;16.55;;
39956;SDS011;48483;44.640;7.494;2024-01-11T05:13:14;23.33;;;17.45;;
39956;SDS011;48483;44.640;7.494;2024-01-11T05:15:41;23.88;;;17.02;;
39956;SDS011;48483;44.640;7.494;2024-01-11T05:18:09;26.70;;;17.20;;
39956;SDS011;48483;44.640;7.494;2024-01-11T05:20:36;23.65;;;16.67;;
39956;SDS011;48483;44.640;7.494;2024-01-11T05:23:03;28.15;;;17.75;;
39956;SDS011;48483;44.640;7.494;2024-01-11T05:25:30;25.73;;;17.38;;
39956;SDS011;48483;44.640;7.494;2024-01-11T05:27:59;26.13;;;18.02;;
39956;SDS011;48483;44.640;7.494;2024-01-11T05:30:26;27.33;;;18.45;;
39956;SDS011;48483;44.640;7.494;2024-01-11T05:32:53;25.55;;;17.50;;
39956;SDS011;48483;44.640;7.494;2024-01-11T05:35:21;22.60;;;17.30;;
39956;SDS011;48483;44.640;7.494;2024-01-11T05:37:53;25.77;;;17.30;;
39956;SDS011;48483;44.640;7.494;2024-01-11T05:40:22;19.35;;;14.30;;
39956;SDS011;48483;44.640;7.494;2024-01-11T05:42:49;25.65;;;17.67;;
39956;SDS011;48483;44.640;7.494;2024-01-11T05:45:16;24.15;;;17.50;;
39956;SDS011;48483;44.640;7.494;2024-01-11T05:47:42;22.73;;;17.08;;
39956;SDS011;48483;44.640;7.494;2024-01-11T05:50:10;24.50;;;16.67;;
39956;SDS011;48483;44.640;7.494;2024-01-11T05:52:39;26.17;;;17.85;;
39956;SDS011;48483;44.640;7.494;2024-01-11T05:55:06;25.50;;;18.42;;
39956;SDS011;48483;44.640;7.494;2024-01-11T05:57:33;25.00;;;18.38;;
39956;SDS011;48483;44.640;7.494;2024-01-11T05:59:59;23.63;;;17.33;;
39956;SDS011;48483;44.640;7.494;2024-01-11T06:02:26;24.45;;;17.90;;
39956;SDS011;48483;44.640;7.494;2024-01-11T06:04:53;27.95;;;17.85;;
39956;SDS011;48483;44.640;7.494;2024-01-11T06:07:19;24.35;;;17.02;;
39956;SDS011;48483;44.640;7.494;2024-01-11T06:09:47;26.40;;;18.25;;
39956;SDS011;48483;44.640;7.494;2024-01-11T06:12:14;25.05;;;19.15;;
39956;SDS011;48483;44.640;7.494;2024-01-11T06:14:41;27.30;;;19.38;;
39956;SDS011;48483;44.640;7.494;2024-01-11T06:17:08;25.10;;;16.95;;
39956;SDS011;48483;44.640;7.494;2024-01-11T06:19:37;23.60;;;17.85;;
39956;SDS011;48483;44.640;7.494;2024-01-11T06:22:04;28.95;;;19.35;;
39956;SDS011;48483;44.640;7.494;2024-01-11T06:24:31;25.52;;;17.42;;
39956;SDS011;48483;44.640;7.494;2024-01-11T06:26:59;27.17;;;17.45;;
39956;SDS011;48483;44.640;7.494;2024-01-11T06:29:26;26.20;;;17.40;;
39956;SDS011;48483;44.640;7.494;2024-01-11T06:31:53;29.30;;;20.58;;
39956;SDS011;48483;44.640;7.494;2024-01-11T06:34:20;28.88;;;19.50;;
39956;SDS011;48483;44.640;7.494;2024-01-11T06:36:47;31.42;;;19.67;;
39956;SDS011;48483;44.640;7.494;2024-01-11T06:39:13;27.70;;;17.63;;
39956;SDS011;48483;44.640;7.494;2024-01-11T06:41:40;27.52;;;19.35;;
39956;SDS011;48483;44.640;7.494;2024-01-11T06:44:08;29.90;;;19.60;;
39956;SDS011;48483;44.640;7.494;2024-01-11T06:46:35;32.10;;;20.23;;
39956;SDS011;48483;44.640;7.494;2024-01-11T06:49:02;33.40;;;19.98;;
39956;SDS011;48483;44.640;7.494;2024-01-11T06:51:29;31.35;;;20.52;;
39956;SDS011;48483;44.640;7.494;2024-01-11T06:53:56;30.85;;;21.10;;
39956;SDS011;48483;44.640;7.494;2024-01-11T06:56:22;32.20;;;22.10;;
39956;SDS011;48483;44.640;7.494;2024-01-11T06:58:49;28.35;;;20.63;;
39956;SDS011;48483;44.640;7.494;2024-01-11T07:01:18;32.25;;;20.85;;
39956;SDS011;48483;44.640;7.494;2024-01-11T07:03:45;28.83;;;18.55;;
39956;SDS011;48483;44.640;7.494;2024-01-11T07:06:11;32.22;;;21.45;;
39956;SDS011;48483;44.640;7.494;2024-01-11T07:08:38;29.40;;;20.67;;
39956;SDS011;48483;44.640;7.494;2024-01-11T07:11:05;30.73;;;21.02;;
39956;SDS011;48483;44.640;7.494;2024-01-11T07:13:33;30.60;;;21.35;;
39956;SDS011;48483;44.640;7.494;2024-01-11T07:16:00;34.75;;;23.75;;
39956;SDS011;48483;44.640;7.494;2024-01-11T07:18:30;31.88;;;21.27;;
39956;SDS011;48483;44.640;7.494;2024-01-11T07:20:57;36.88;;;22.80;;
39956;SDS011;48483;44.640;7.494;2024-01-11T07:23:24;38.85;;;24.63;;
39956;SDS011;48483;44.640;7.494;2024-01-11T07:25:52;40.20;;;24.33;;
39956;SDS011;48483;44.640;7.494;2024-01-11T07:28:19;38.72;;;25.77;;
39956;SDS011;48483;44.640;7.494;2024-01-11T07:30:51;37.42;;;24.02;;
39956;SDS011;48483;44.640;7.494;2024-01-11T07:33:18;42.22;;;25.13;;
39956;SDS011;48483;44.640;7.494;2024-01-11T07:35:46;33.13;;;22.30;;
39956;SDS011;48483;44.640;7.494;2024-01-11T07:38:13;33.35;;;21.20;;
39956;SDS011;48483;44.640;7.494;2024-01-11T07:40:40;35.20;;;22.23;;
39956;SDS011;48483;44.640;7.494;2024-01-11T07:43:07;35.30;;;19.73;;
39956;SDS011;48483;44.640;7.494;2024-01-11T07:45:34;32.15;;;21.33;;
39956;SDS011;48483;44.640;7.494;2024-01-11T07:48:01;31.98;;;20.92;;
39956;SDS011;48483;44.640;7.494;2024-01-11T07:50:29;30.38;;;21.73;;
39956;SDS011;48483;44.640;7.494;2024-01-11T07:52:57;38.72;;;23.85;;
39956;SDS011;48483;44.640;7.494;2024-01-11T07:55:24;38.80;;;25.05;;
39956;SDS011;48483;44.640;7.494;2024-01-11T07:57:52;37.95;;;23.33;;
39956;SDS011;48483;44.640;7.494;2024-01-11T08:00:19;33.58;;;22.73;;
39956;SDS011;48483;44.640;7.494;2024-01-11T08:02:45;35.08;;;23.75;;
39956;SDS011;48483;44.640;7.494;2024-01-11T08:05:12;34.25;;;24.75;;
39956;SDS011;48483;44.640;7.494;2024-01-11T08:07:39;38.10;;;24.40;;
39956;SDS011;48483;44.640;7.494;2024-01-11T08:10:09;38.97;;;24.88;;
39956;SDS011;48483;44.640;7.494;2024-01-11T08:12:36;35.22;;;22.38;;
39956;SDS011;48483;44.640;7.494;2024-01-11T08:15:03;33.92;;;23.40;;
39956;SDS011;48483;44.640;7.494;2024-01-11T08:17:30;35.85;;;22.15;;
39956;SDS011;48483;44.640;7.494;2024-01-11T08:19:57;36.67;;;24.20;;
39956;SDS011;48483;44.640;7.494;2024-01-11T08:22:23;34.33;;;23.55;;
39956;SDS011;48483;44.640;7.494;2024-01-11T08:24:50;32.75;;;23.30;;
39956;SDS011;48483;44.640;7.494;2024-01-11T08:27:18;33.65;;;21.98;;
39956;SDS011;48483;44.640;7.494;2024-01-11T08:29:45;29.35;;;19.42;;
39956;SDS011;48483;44.640;7.494;2024-01-11T08:32:12;32.90;;;20.02;;
39956;SDS011;48483;44.640;7.494;2024-01-11T08:34:39;33.55;;;23.90;;
39956;SDS011;48483;44.640;7.494;2024-01-11T08:37:05;31.80;;;21.52;;
39956;SDS011;48483;44.640;7.494;2024-01-11T08:39:32;35.10;;;22.00;;
39956;SDS011;48483;44.640;7.494;2024-01-11T08:41:59;34.05;;;22.90;;
39956;SDS011;48483;44.640;7.494;2024-01-11T08:44:27;33.85;;;23.45;;
39956;SDS011;48483;44.640;7.494;2024-01-11T08:46:55;35.00;;;21.67;;
39956;SDS011;48483;44.640;7.494;2024-01-11T08:49:23;32.13;;;21.48;;
39956;SDS011;48483;44.640;7.494;2024-01-11T08:51:50;33.95;;;21.63;;
39956;SDS011;48483;44.640;7.494;2024-01-11T08:54:17;31.60;;;21.92;;
39956;SDS011;48483;44.640;7.494;2024-01-11T08:56:46;39.25;;;23.35;;
39956;SDS011;48483;44.640;7.494;2024-01-11T08:59:13;32.00;;;21.20;;
39956;SDS011;48483;44.640;7.494;2024-01-11T09:01:41;34.85;;;22.30;;
39956;SDS011;48483;44.640;7.494;2024-01-11T09:04:08;39.58;;;24.55;;
39956;SDS011;48483;44.640;7.494;2024-01-11T09:06:35;36.60;;;23.15;;
39956;SDS011;48483;44.640;7.494;2024-01-11T09:09:01;33.67;;;23.25;;
39956;SDS011;48483;44.640;7.494;2024-01-11T09:11:28;38.95;;;24.23;;
39956;SDS011;48483;44.640;7.494;2024-01-11T09:13:55;38.45;;;25.27;;
39956;SDS011;48483;44.640;7.494;2024-01-11T09:16:23;37.60;;;23.70;;
39956;SDS011;48483;44.640;7.494;2024-01-11T09:18:51;33.97;;;24.13;;
39956;SDS011;48483;44.640;7.494;2024-01-11T09:21:18;40.13;;;25.58;;
39956;SDS011;48483;44.640;7.494;2024-01-11T09:23:45;33.80;;;23.52;;
39956;SDS011;48483;44.640;7.494;2024-01-11T09:26:12;39.05;;;25.23;;
39956;SDS011;48483;44.640;7.494;2024-01-11T09:28:39;34.95;;;24.50;;
39956;SDS011;48483;44.640;7.494;2024-01-11T09:31:05;35.50;;;22.92;;
39956;SDS011;48483;44.640;7.494;2024-01-11T09:33:32;36.30;;;24.23;;
39956;SDS011;48483;44.640;7.494;2024-01-11T09:36:00;39.42;;;24.02;;
39956;SDS011;48483;44.640;7.494;2024-01-11T09:38:27;37.67;;;23.73;;
39956;SDS011;48483;44.640;7.494;2024-01-11T09:40:56;35.40;;;24.00;;
39956;SDS011;48483;44.640;7.494;2024-01-11T09:43:31;36.20;;;23.55;;
39956;SDS011;48483;44.640;7.494;2024-01-11T09:46:00;37.83;;;23.70;;
39956;SDS011;48483;44.640;7.494;2024-01-11T09:48:31;31.95;;;21.67;;
39956;SDS011;48483;44.640;7.494;2024-01-11T09:51:02;37.58;;;24.50;;
39956;SDS011;48483;44.640;7.494;2024-01-11T09:53:32;36.00;;;23.65;;
39956;SDS011;48483;44.640;7.494;2024-01-11T09:56:00;34.35;;;21.88;;
39956;SDS011;48483;44.640;7.494;2024-01-11T09:58:26;34.30;;;21.73;;
39956;SDS011;48483;44.640;7.494;2024-01-11T10:00:54;35.58;;;22.35;;
39956;SDS011;48483;44.640;7.494;2024-01-11T10:03:22;29.95;;;17.70;;
39956;SDS011;48483;44.640;7.494;2024-01-11T10:05:49;37.92;;;20.40;;
39956;SDS011;48483;44.640;7.494;2024-01-11T10:08:18;31.30;;;20.55;;
39956;SDS011;48483;44.640;7.494;2024-01-11T10:10:47;32.67;;;19.60;;
39956;SDS011;48483;44.640;7.494;2024-01-11T10:13:14;32.17;;;19.92;;
39956;SDS011;48483;44.640;7.494;2024-01-11T10:15:40;37.50;;;21.95;;
39956;SDS011;48483;44.640;7.494;2024-01-11T10:18:07;32.95;;;19.80;;
39956;SDS011;48483;44.640;7.494;2024-01-11T10:20:33;31.88;;;20.95;;
39956;SDS011;48483;44.640;7.494;2024-01-11T10:23:01;35.05;;;20.35;;
39956;SDS011;48483;44.640;7.494;2024-01-11T10:25:30;32.75;;;21.60;;
39956;SDS011;48483;44.640;7.494;2024-01-11T10:27:56;36.47;;;22.50;;
39956;SDS011;48483;44.640;7.494;2024-01-11T10:30:24;31.67;;;19.33;;
39956;SDS011;48483;44.640;7.494;2024-01-11T10:32:52;31.42;;;20.00;;
39956;SDS011;48483;44.640;7.494;2024-01-11T10:35:18;31.00;;;18.73;;
39956;SDS011;48483;44.640;7.494;2024-01-11T10:37:46;35.03;;;21.05;;
39956;SDS011;48483;44.640;7.494;2024-01-11T10:40:17;31.58;;;21.45;;
39956;SDS011;48483;44.640;7.494;2024-01-11T10:42:51;36.45;;;22.55;;
39956;SDS011;48483;44.640;7.494;2024-01-11T10:45:19;34.33;;;23.08;;
39956;SDS011;48483;44.640;7.494;2024-01-11T10:47:49;33.05;;;22.45;;
39956;SDS011;48483;44.640;7.494;2024-01-11T10:50:20;36.15;;;20.17;;
39956;SDS011;48483;44.640;7.494;2024-01-11T10:52:53;35.55;;;22.23;;
39956;SDS011;48483;44.640;7.494;2024-01-11T10:55:28;34.63;;;21.90;;
39956;SDS011;48483;44.640;7.494;2024-01-11T10:57:59;38.92;;;22.95;;
39956;SDS011;48483;44.640;7.494;2024-01-11T11:00:26;36.03;;;21.95;;
39956;SDS011;48483;44.640;7.494;2024-01-11T11:02:53;31.42;;;20.23;;
39956;SDS011;48483;44.640;7.494;2024-01-11T11:05:21;36.75;;;21.80;;
39956;SDS011;48483;44.640;7.494;2024-01-11T11:07:51;25.65;;;16.75;;
39956;SDS011;48483;44.640;7.494;2024-01-11T11:10:18;32.97;;;21.98;;
39956;SDS011;48483;44.640;7.494;2024-01-11T11:12:47;36.50;;;23.08;;
39956;SDS011;48483;44.640;7.494;2024-01-11T11:15:16;33.30;;;21.27;;
39956;SDS011;48483;44.640;7.494;2024-01-11T11:17:43;34.20;;;20.75;;
39956;SDS011;48483;44.640;7.494;2024-01-11T11:20:11;34.00;;;21.77;;
39956;SDS011;48483;44.640;7.494;2024-01-11T11:22:39;33.00;;;20.13;;
39956;SDS011;48483;44.640;7.494;2024-01-11T11:25:08;34.33;;;22.50;;
39956;SDS011;48483;44.640;7.494;2024-01-11T11:27:35;29.92;;;20.20;;
39956;SDS011;48483;44.640;7.494;2024-01-11T11:30:02;36.20;;;23.75;;
39956;SDS011;48483;44.640;7.494;2024-01-11T11:32:37;33.67;;;21.42;;
39956;SDS011;48483;44.640;7.494;2024-01-11T11:35:08;36.03;;;22.70;;
39956;SDS011;48483;44.640;7.494;2024-01-11T11:37:36;37.65;;;23.13;;
39956;SDS011;48483;44.640;7.494;2024-01-11T11:40:03;35.35;;;22.17;;
39956;SDS011;48483;44.640;7.494;2024-01-11T11:42:33;31.92;;;21.08;;
39956;SDS011;48483;44.640;7.494;2024-01-11T11:45:01;34.47;;;21.92;;
39956;SDS011;48483;44.640;7.494;2024-01-11T11:47:33;34.92;;;22.90;;
39956;SDS011;48483;44.640;7.494;2024-01-11T11:50:06;35.22;;;22.20;;
39956;SDS011;48483;44.640;7.494;2024-01-11T11:52:34;34.92;;;23.10;;
39956;SDS011;48483;44.640;7.494;2024-01-11T11:55:01;35.50;;;22.58;;
39956;SDS011;48483;44.640;7.494;2024-01-11T11:57:29;34.60;;;22.45;;
39956;SDS011;48483;44.640;7.494;2024-01-11T11:59:56;34.60;;;22.40;;
39956;SDS011;48483;44.640;7.494;2024-01-11T12:02:26;30.37;;;21.57;;
39956;SDS011;48483;44.640;7.494;2024-01-11T12:04:53;36.10;;;21.83;;
39956;SDS011;48483;44.640;7.494;2024-01-11T12:07:21;31.65;;;21.23;;
39956;SDS011;48483;44.640;7.494;2024-01-11T12:09:49;35.55;;;22.38;;
39956;SDS011;48483;44.640;7.494;2024-01-11T12:12:17;33.25;;;23.20;;
39956;SDS011;48483;44.640;7.494;2024-01-11T12:14:46;36.65;;;22.33;;
39956;SDS011;48483;44.640;7.494;2024-01-11T12:17:13;35.67;;;23.98;;
39956;SDS011;48483;44.640;7.494;2024-01-11T12:19:40;37.22;;;24.00;;
39956;SDS011;48483;44.640;7.494;2024-01-11T12:22:06;34.22;;;22.98;;
39956;SDS011;48483;44.640;7.494;2024-01-11T12:24:34;33.83;;;22.38;;
39956;SDS011;48483;44.640;7.494;2024-01-11T12:27:01;33.50;;;22.33;;
39956;SDS011;48483;44.640;7.494;2024-01-11T12:29:28;35.45;;;24.15;;
39956;SDS011;48483;44.640;7.494;2024-01-11T12:31:56;37.85;;;23.17;;
39956;SDS011;48483;44.640;7.494;2024-01-11T12:34:24;34.13;;;23.55;;
39956;SDS011;48483;44.640;7.494;2024-01-11T12:36:51;35.30;;;23.90;;
39956;SDS011;48483;44.640;7.494;2024-01-11T12:39:19;40.20;;;23.80;;
39956;SDS011;48483;44.640;7.494;2024-01-11T12:41:50;35.85;;;23.70;;
39956;SDS011;48483;44.640;7.494;2024-01-11T12:44:17;34.85;;;23.60;;
39956;SDS011;48483;44.640;7.494;2024-01-11T12:46:47;35.38;;;23.52;;
39956;SDS011;48483;44.640;7.494;2024-01-11T12:49:14;33.10;;;23.83;;
39956;SDS011;48483;44.640;7.494;2024-01-11T12:51:41;35.15;;;23.70;;
39956;SDS011;48483;44.640;7.494;2024-01-11T12:54:10;36.35;;;25.48;;
39956;SDS011;48483;44.640;7.494;2024-01-11T12:56:42;35.45;;;23.77;;
39956;SDS011;48483;44.640;7.494;2024-01-11T12:59:10;35.22;;;22.77;;
39956;SDS011;48483;44.640;7.494;2024-01-11T13:01:38;35.55;;;23.60;;
39956;SDS011;48483;44.640;7.494;2024-01-11T13:04:05;36.95;;;23.80;;
39956;SDS011;48483;44.640;7.494;2024-01-11T13:06:35;36.60;;;25.17;;
39956;SDS011;48483;44.640;7.494;2024-01-11T13:09:02;34.55;;;23.00;;
39956;SDS011;48483;44.640;7.494;2024-01-11T13:11:29;40.47;;;24.67;;
39956;SDS011;48483;44.640;7.494;2024-01-11T13:13:56;33.47;;;23.70;;
39956;SDS011;48483;44.640;7.494;2024-01-11T13:16:26;35.65;;;24.73;;
39956;SDS011;48483;44.640;7.494;2024-01-11T13:18:53;35.83;;;24.90;;
39956;SDS011;48483;44.640;7.494;2024-01-11T13:21:19;36.58;;;24.90;;
39956;SDS011;48483;44.640;7.494;2024-01-11T13:23:46;34.17;;;23.35;;
39956;SDS011;48483;44.640;7.494;2024-01-11T13:26:13;35.25;;;24.23;;
39956;SDS011;48483;44.640;7.494;2024-01-11T13:28:39;33.25;;;23.38;;
39956;SDS011;48483;44.640;7.494;2024-01-11T13:31:06;36.08;;;26.02;;
39956;SDS011;48483;44.640;7.494;2024-01-11T13:33:37;37.83;;;22.60;;
39956;SDS011;48483;44.640;7.494;2024-01-11T13:36:05;33.72;;;22.92;;
39956;SDS011;48483;44.640;7.494;2024-01-11T13:38:33;32.63;;;23.45;;
39956;SDS011;48483;44.640;7.494;2024-01-11T13:41:00;31.30;;;23.15;;
39956;SDS011;48483;44.640;7.494;2024-01-11T13:43:26;33.35;;;22.55;;
39956;SDS011;48483;44.640;7.494;2024-01-11T13:45:53;35.83;;;24.73;;
39956;SDS011;48483;44.640;7.494;2024-01-11T13:48:21;33.63;;;24.13;;
39956;SDS011;48483;44.640;7.494;2024-01-11T13:50:49;34.97;;;23.30;;
39956;SDS011;48483;44.640;7.494;2024-01-11T13:53:15;36.15;;;23.48;;
39956;SDS011;48483;44.640;7.494;2024-01-11T13:55:42;33.00;;;22.98;;
39956;SDS011;48483;44.640;7.494;2024-01-11T13:58:09;33.53;;;23.48;;
39956;SDS011;48483;44.640;7.494;2024-01-11T14:00:38;37.08;;;26.52;;
39956;SDS011;48483;44.640;7.494;2024-01-11T14:03:05;36.03;;;23.77;;
39956;SDS011;48483;44.640;7.494;2024-01-11T14:05:31;35.17;;;22.40;;
39956;SDS011;48483;44.640;7.494;2024-01-11T14:08:00;32.08;;;23.25;;
39956;SDS011;48483;44.640;7.494;2024-01-11T14:10:31;37.05;;;23.92;;
39956;SDS011;48483;44.640;7.494;2024-01-11T14:13:01;37.73;;;23.53;;
39956;SDS011;48483;44.640;7.494;2024-01-11T14:15:28;35.08;;;24.30;;
39956;SDS011;48483;44.640;7.494;2024-01-11T14:17:54;33.50;;;24.30;;
39956;SDS011;48483;44.640;7.494;2024-01-11T14:20:21;35.25;;;23.90;;
39956;SDS011;48483;44.640;7.494;2024-01-11T14:22:47;32.38;;;23.42;;
39956;SDS011;48483;44.640;7.494;2024-01-11T14:25:17;35.50;;;23.67;;
39956;SDS011;48483;44.640;7.494;2024-01-11T14:27:44;34.22;;;22.95;;
39956;SDS011;48483;44.640;7.494;2024-01-11T14:30:11;35.47;;;23.38;;